Midway, Canada
Current Conditions -  °F | °C
As of 10:00 PM on Friday 19 Dec 2014 (Local Time) from CYYF Reporting Station
Overcast Overcast  
Wind Chill: 31°   Ceiling: 2200
Heat Index: 39°   Visibility: 15mi
Dew Point: 34°   Wind: 15mph
Humidity: 81%   Direction: 160°SSE
Pressure: 29.95"   Gusts: 26mph
Location:  49.02°N, 118.78°W
Report Text: CYYF 200600Z 16013G23KT 15SM BKN022 OVC210 04/01 A2995 RMK SC5CI3 SLP151
Loading
Personal Weather Stations






























Interactive Weather Map New forecast layout! Learn more

10-Day Weather Forecast

Advertisements
Track Severe Weather on mobile